首页
METAR-TAF:

METAR-TAF

机场 :

布林迪西, 意大利

纬度: 40-39N, 经度: 017-57E, 海拔: 15米

当前天气观测

该预报发布于16小时和17分钟前的12:50 UTC
风速6节,风向,在东转东北东转东南之间变化
温度 25°C
湿度 61%
气压 1021 hPa
能见度10公里或以上
1500米以下无云,无积雨云

METAR: LIBR 241250Z 09006KT 060V120 CAVOK 25/17 Q1021

时间: 07:07 (05:07 UTC)

预报

该预报发布于18小时和7分钟前的11:00 UTC
预报有效从24日的 12点(UTC)到 25日的 12点(UTC)
风速5节,风向多变
能见度10公里或以上
1500米以下无云,无积雨云
成为
从 24日的 14点(UTC)到 24日的 16点(UTC)
风速15节,风向

TAF: LIBR 241100Z 2412/2512 VRB05KT CAVOK BECMG 2414/2416 35015KT

超过4000个机场的气象观测和天气预报(METAR&TAF报告)。

可查询的气象台以黄色和红色小点在地图上表示。

将鼠标移到小点上方,可查看气象台名称。

然后点击查看天气观测和预报。

如需切换地图:点击带黑十字的绿色按钮放大地图;点击带横线的绿色按钮缩小地图;或者点击绿色箭头查看邻近地区的地图。


METAR-TAF: